首页
METAR-TAF:

METAR-TAF

机场 :

廊曼国际机场

曼谷, 泰国

纬度: 13-54-45N, 经度: 100-36-24E, 海拔: 4米

当前天气观测

该预报发布于20分钟前的01:00 UTC
风速4节,风向,在西转西北之间变化
温度 28°C
湿度 74%
气压 1013 hPa
能見度: 9000
少量云层高于3000英尺

METAR: VTBD 240100Z 01004KT 300V080 9000 FEW030 28/23 Q1013 NOSIG

时间: 08:20 (01:20 UTC)

预报

该预报发布于2小时和20分钟前的23:00 UTC
预报有效从24日的 00点(UTC)到 25日的 06点(UTC)
风速5节,风向
能见度10公里或以上
少量云层高于3000英尺
成为
从 24日的 02点(UTC)到 24日的 04点(UTC)
风速8节,风向东转东北
成为
从 24日的 11点(UTC)到 24日的 13点(UTC)
风速5节,风向
成为
从 25日的 00点(UTC)到 25日的 02点(UTC)
风速8节,风向

TAF: VTBD 232300Z 2400/2506 01005KT 9999 FEW030 BECMG 2402/2404 07008KT BECMG 2411/2413 35005KT BECMG 2500/2502 08008KT

超过4000个机场的气象观测和天气预报(METAR&TAF报告)。

可查询的气象台以黄色和红色小点在地图上表示。

将鼠标移到小点上方,可查看气象台名称。

然后点击查看天气观测和预报。

如需切换地图:点击带黑十字的绿色按钮放大地图;点击带横线的绿色按钮缩小地图;或者点击绿色箭头查看邻近地区的地图。


METAR-TAF: